sensor_id;sensor_type;location;lat;lon;timestamp;P1;durP1;ratioP1;P2;durP2;ratioP2
69779;SDS011;57052;55.602;38.096;2023-07-20T00:02:21;3.72;;;1.52;;
69779;SDS011;57052;55.602;38.096;2023-07-20T00:04:47;3.80;;;1.38;;
69779;SDS011;57052;55.602;38.096;2023-07-20T00:07:13;7.82;;;1.63;;
69779;SDS011;57052;55.602;38.096;2023-07-20T00:09:39;3.65;;;1.55;;
69779;SDS011;57052;55.602;38.096;2023-07-20T00:12:04;4.40;;;1.40;;
69779;SDS011;57052;55.602;38.096;2023-07-20T00:14:30;2.58;;;1.75;;
69779;SDS011;57052;55.602;38.096;2023-07-20T00:16:57;3.92;;;1.25;;
69779;SDS011;57052;55.602;38.096;2023-07-20T00:19:26;4.43;;;1.55;;
69779;SDS011;57052;55.602;38.096;2023-07-20T00:21:53;2.97;;;1.50;;
69779;SDS011;57052;55.602;38.096;2023-07-20T00:24:20;4.95;;;1.52;;
69779;SDS011;57052;55.602;38.096;2023-07-20T00:26:45;5.53;;;1.48;;
69779;SDS011;57052;55.602;38.096;2023-07-20T00:29:11;6.72;;;1.70;;
69779;SDS011;57052;55.602;38.096;2023-07-20T00:31:37;4.07;;;1.48;;
69779;SDS011;57052;55.602;38.096;2023-07-20T00:34:03;3.72;;;1.45;;
69779;SDS011;57052;55.602;38.096;2023-07-20T00:36:29;2.50;;;1.38;;
69779;SDS011;57052;55.602;38.096;2023-07-20T00:38:55;5.53;;;1.50;;
69779;SDS011;57052;55.602;38.096;2023-07-20T00:41:20;4.00;;;1.50;;
69779;SDS011;57052;55.602;38.096;2023-07-20T00:43:46;4.82;;;1.35;;
69779;SDS011;57052;55.602;38.096;2023-07-20T00:46:12;4.15;;;1.63;;
69779;SDS011;57052;55.602;38.096;2023-07-20T00:48:38;4.95;;;1.40;;
69779;SDS011;57052;55.602;38.096;2023-07-20T00:51:05;3.40;;;1.60;;
69779;SDS011;57052;55.602;38.096;2023-07-20T00:53:31;3.92;;;1.50;;
69779;SDS011;57052;55.602;38.096;2023-07-20T00:55:56;6.35;;;1.50;;
69779;SDS011;57052;55.602;38.096;2023-07-20T00:58:22;5.22;;;1.40;;
69779;SDS011;57052;55.602;38.096;2023-07-20T01:00:49;2.67;;;1.27;;
69779;SDS011;57052;55.602;38.096;2023-07-20T01:03:14;2.90;;;1.40;;
69779;SDS011;57052;55.602;38.096;2023-07-20T01:05:42;2.97;;;1.50;;
69779;SDS011;57052;55.602;38.096;2023-07-20T01:11:33;4.03;;;1.40;;
69779;SDS011;57052;55.602;38.096;2023-07-20T01:14:12;5.25;;;1.50;;
69779;SDS011;57052;55.602;38.096;2023-07-20T01:16:39;2.83;;;1.35;;
69779;SDS011;57052;55.602;38.096;2023-07-20T01:19:05;3.10;;;1.30;;
69779;SDS011;57052;55.602;38.096;2023-07-20T01:21:41;5.20;;;1.30;;
69779;SDS011;57052;55.602;38.096;2023-07-20T01:32:31;5.63;;;1.75;;
69779;SDS011;57052;55.602;38.096;2023-07-20T01:34:58;4.00;;;1.50;;
69779;SDS011;57052;55.602;38.096;2023-07-20T01:37:27;3.13;;;1.50;;
69779;SDS011;57052;55.602;38.096;2023-07-20T01:39:55;5.10;;;1.38;;
69779;SDS011;57052;55.602;38.096;2023-07-20T01:42:22;8.38;;;1.88;;
69779;SDS011;57052;55.602;38.096;2023-07-20T01:44:52;3.78;;;1.58;;
69779;SDS011;57052;55.602;38.096;2023-07-20T01:47:18;4.93;;;2.30;;
69779;SDS011;57052;55.602;38.096;2023-07-20T01:49:44;3.35;;;1.38;;
69779;SDS011;57052;55.602;38.096;2023-07-20T01:52:10;11.18;;;1.60;;
69779;SDS011;57052;55.602;38.096;2023-07-20T01:54:35;4.45;;;1.60;;
69779;SDS011;57052;55.602;38.096;2023-07-20T01:57:01;2.45;;;1.20;;
69779;SDS011;57052;55.602;38.096;2023-07-20T01:59:27;6.15;;;1.65;;
69779;SDS011;57052;55.602;38.096;2023-07-20T02:01:52;3.83;;;1.40;;
69779;SDS011;57052;55.602;38.096;2023-07-20T02:04:18;3.83;;;1.50;;
69779;SDS011;57052;55.602;38.096;2023-07-20T02:06:44;4.00;;;1.30;;
69779;SDS011;57052;55.602;38.096;2023-07-20T02:09:09;5.15;;;1.30;;
69779;SDS011;57052;55.602;38.096;2023-07-20T02:11:35;5.40;;;1.58;;
69779;SDS011;57052;55.602;38.096;2023-07-20T02:14:01;2.78;;;1.40;;
69779;SDS011;57052;55.602;38.096;2023-07-20T02:16:27;4.78;;;1.50;;
69779;SDS011;57052;55.602;38.096;2023-07-20T02:18:53;4.63;;;1.58;;
69779;SDS011;57052;55.602;38.096;2023-07-20T02:21:18;6.10;;;2.35;;
69779;SDS011;57052;55.602;38.096;2023-07-20T02:23:44;3.10;;;1.25;;
69779;SDS011;57052;55.602;38.096;2023-07-20T02:26:09;6.72;;;1.55;;
69779;SDS011;57052;55.602;38.096;2023-07-20T02:28:35;2.85;;;1.40;;
69779;SDS011;57052;55.602;38.096;2023-07-20T02:31:01;5.20;;;2.30;;
69779;SDS011;57052;55.602;38.096;2023-07-20T02:33:26;3.10;;;1.40;;
69779;SDS011;57052;55.602;38.096;2023-07-20T02:35:52;3.67;;;1.38;;
69779;SDS011;57052;55.602;38.096;2023-07-20T02:38:18;5.75;;;1.63;;
69779;SDS011;57052;55.602;38.096;2023-07-20T02:40:43;4.43;;;1.70;;
69779;SDS011;57052;55.602;38.096;2023-07-20T02:43:09;7.28;;;1.80;;
69779;SDS011;57052;55.602;38.096;2023-07-20T02:45:35;5.90;;;2.00;;
69779;SDS011;57052;55.602;38.096;2023-07-20T02:48:01;7.03;;;1.85;;
69779;SDS011;57052;55.602;38.096;2023-07-20T02:50:27;7.60;;;2.30;;
69779;SDS011;57052;55.602;38.096;2023-07-20T02:52:53;5.65;;;2.00;;
69779;SDS011;57052;55.602;38.096;2023-07-20T02:55:19;6.70;;;2.60;;
69779;SDS011;57052;55.602;38.096;2023-07-20T02:57:46;5.30;;;2.30;;
69779;SDS011;57052;55.602;38.096;2023-07-20T03:00:11;7.57;;;2.50;;
69779;SDS011;57052;55.602;38.096;2023-07-20T03:02:40;3.60;;;1.90;;
69779;SDS011;57052;55.602;38.096;2023-07-20T03:05:06;3.05;;;1.85;;
69779;SDS011;57052;55.602;38.096;2023-07-20T03:07:32;3.67;;;1.90;;
69779;SDS011;57052;55.602;38.096;2023-07-20T03:09:58;6.70;;;1.60;;
69779;SDS011;57052;55.602;38.096;2023-07-20T03:12:24;5.65;;;1.60;;
69779;SDS011;57052;55.602;38.096;2023-07-20T03:14:50;2.28;;;1.25;;
69779;SDS011;57052;55.602;38.096;2023-07-20T03:17:15;3.10;;;1.63;;
69779;SDS011;57052;55.602;38.096;2023-07-20T03:19:41;3.10;;;1.55;;
69779;SDS011;57052;55.602;38.096;2023-07-20T03:22:08;3.40;;;1.30;;
69779;SDS011;57052;55.602;38.096;2023-07-20T03:24:33;4.32;;;1.27;;
69779;SDS011;57052;55.602;38.096;2023-07-20T03:26:59;8.98;;;1.58;;
69779;SDS011;57052;55.602;38.096;2023-07-20T03:29:25;2.83;;;1.23;;
69779;SDS011;57052;55.602;38.096;2023-07-20T03:31:51;2.53;;;1.40;;
69779;SDS011;57052;55.602;38.096;2023-07-20T03:34:16;3.65;;;1.48;;
69779;SDS011;57052;55.602;38.096;2023-07-20T03:36:42;4.88;;;1.30;;
69779;SDS011;57052;55.602;38.096;2023-07-20T03:39:07;2.60;;;1.50;;
69779;SDS011;57052;55.602;38.096;2023-07-20T03:41:33;1.95;;;1.17;;
69779;SDS011;57052;55.602;38.096;2023-07-20T03:43:59;2.60;;;1.20;;
69779;SDS011;57052;55.602;38.096;2023-07-20T03:46:24;4.70;;;1.30;;
69779;SDS011;57052;55.602;38.096;2023-07-20T03:48:50;3.58;;;1.20;;
69779;SDS011;57052;55.602;38.096;2023-07-20T03:51:15;1.48;;;1.00;;
69779;SDS011;57052;55.602;38.096;2023-07-20T03:53:41;1.85;;;1.05;;
69779;SDS011;57052;55.602;38.096;2023-07-20T03:56:07;4.50;;;1.20;;
69779;SDS011;57052;55.602;38.096;2023-07-20T03:58:33;2.17;;;1.30;;
69779;SDS011;57052;55.602;38.096;2023-07-20T04:00:59;2.13;;;1.08;;
69779;SDS011;57052;55.602;38.096;2023-07-20T04:03:24;1.25;;;1.00;;
69779;SDS011;57052;55.602;38.096;2023-07-20T04:05:52;3.55;;;1.10;;
69779;SDS011;57052;55.602;38.096;2023-07-20T04:08:19;3.05;;;1.30;;
69779;SDS011;57052;55.602;38.096;2023-07-20T04:10:45;2.25;;;1.05;;
69779;SDS011;57052;55.602;38.096;2023-07-20T04:13:10;2.10;;;1.30;;
69779;SDS011;57052;55.602;38.096;2023-07-20T04:15:37;2.05;;;1.10;;
69779;SDS011;57052;55.602;38.096;2023-07-20T04:18:03;2.78;;;1.10;;
69779;SDS011;57052;55.602;38.096;2023-07-20T04:20:29;4.25;;;1.20;;
69779;SDS011;57052;55.602;38.096;2023-07-20T04:22:55;3.70;;;1.35;;
69779;SDS011;57052;55.602;38.096;2023-07-20T04:25:20;6.75;;;1.30;;
69779;SDS011;57052;55.602;38.096;2023-07-20T04:27:46;2.15;;;1.10;;
69779;SDS011;57052;55.602;38.096;2023-07-20T04:30:12;6.03;;;1.20;;
69779;SDS011;57052;55.602;38.096;2023-07-20T04:32:39;2.83;;;1.25;;
69779;SDS011;57052;55.602;38.096;2023-07-20T04:35:10;2.13;;;1.20;;
69779;SDS011;57052;55.602;38.096;2023-07-20T04:37:36;2.55;;;1.10;;
69779;SDS011;57052;55.602;38.096;2023-07-20T04:40:02;1.50;;;1.00;;
69779;SDS011;57052;55.602;38.096;2023-07-20T04:42:30;4.85;;;1.40;;
69779;SDS011;57052;55.602;38.096;2023-07-20T04:44:55;5.38;;;1.50;;
69779;SDS011;57052;55.602;38.096;2023-07-20T04:47:21;3.60;;;1.10;;
69779;SDS011;57052;55.602;38.096;2023-07-20T04:49:47;3.60;;;1.40;;
69779;SDS011;57052;55.602;38.096;2023-07-20T04:52:12;3.17;;;1.13;;
69779;SDS011;57052;55.602;38.096;2023-07-20T04:54:38;2.83;;;1.17;;
69779;SDS011;57052;55.602;38.096;2023-07-20T04:57:05;5.05;;;1.30;;
69779;SDS011;57052;55.602;38.096;2023-07-20T04:59:36;1.77;;;0.90;;
69779;SDS011;57052;55.602;38.096;2023-07-20T05:02:01;3.85;;;1.33;;
69779;SDS011;57052;55.602;38.096;2023-07-20T05:04:27;3.60;;;1.20;;
69779;SDS011;57052;55.602;38.096;2023-07-20T05:06:52;2.88;;;1.20;;
69779;SDS011;57052;55.602;38.096;2023-07-20T05:09:18;6.57;;;1.10;;
69779;SDS011;57052;55.602;38.096;2023-07-20T05:11:44;3.05;;;1.40;;
69779;SDS011;57052;55.602;38.096;2023-07-20T05:14:10;3.95;;;0.98;;
69779;SDS011;57052;55.602;38.096;2023-07-20T05:16:36;2.78;;;1.00;;
69779;SDS011;57052;55.602;38.096;2023-07-20T05:19:02;3.78;;;1.23;;
69779;SDS011;57052;55.602;38.096;2023-07-20T05:21:27;2.60;;;1.00;;
69779;SDS011;57052;55.602;38.096;2023-07-20T05:23:53;3.17;;;1.15;;
69779;SDS011;57052;55.602;38.096;2023-07-20T05:26:19;2.55;;;1.00;;
69779;SDS011;57052;55.602;38.096;2023-07-20T05:28:44;3.67;;;1.20;;
69779;SDS011;57052;55.602;38.096;2023-07-20T05:31:10;2.47;;;1.10;;
69779;SDS011;57052;55.602;38.096;2023-07-20T05:33:36;3.58;;;1.20;;
69779;SDS011;57052;55.602;38.096;2023-07-20T05:36:01;3.50;;;1.10;;
69779;SDS011;57052;55.602;38.096;2023-07-20T05:38:27;2.75;;;1.25;;
69779;SDS011;57052;55.602;38.096;2023-07-20T05:40:58;1.80;;;1.00;;
69779;SDS011;57052;55.602;38.096;2023-07-20T05:43:26;2.28;;;0.90;;
69779;SDS011;57052;55.602;38.096;2023-07-20T05:45:52;2.28;;;1.00;;
69779;SDS011;57052;55.602;38.096;2023-07-20T05:48:17;3.17;;;1.00;;
69779;SDS011;57052;55.602;38.096;2023-07-20T05:50:43;3.30;;;1.10;;
69779;SDS011;57052;55.602;38.096;2023-07-20T05:53:09;1.83;;;0.80;;
69779;SDS011;57052;55.602;38.096;2023-07-20T05:55:35;1.50;;;0.90;;
69779;SDS011;57052;55.602;38.096;2023-07-20T05:58:01;4.28;;;1.10;;
69779;SDS011;57052;55.602;38.096;2023-07-20T06:00:27;2.53;;;0.90;;
69779;SDS011;57052;55.602;38.096;2023-07-20T06:02:53;3.03;;;0.90;;
69779;SDS011;57052;55.602;38.096;2023-07-20T06:05:21;1.35;;;0.75;;
69779;SDS011;57052;55.602;38.096;2023-07-20T06:07:48;1.20;;;0.90;;
69779;SDS011;57052;55.602;38.096;2023-07-20T06:10:14;2.10;;;1.00;;
69779;SDS011;57052;55.602;38.096;2023-07-20T06:12:40;4.18;;;1.33;;
69779;SDS011;57052;55.602;38.096;2023-07-20T06:15:12;2.05;;;0.80;;
69779;SDS011;57052;55.602;38.096;2023-07-20T06:17:50;2.90;;;1.00;;
69779;SDS011;57052;55.602;38.096;2023-07-20T06:20:16;4.35;;;1.10;;
69779;SDS011;57052;55.602;38.096;2023-07-20T06:22:42;4.97;;;0.98;;
69779;SDS011;57052;55.602;38.096;2023-07-20T06:25:07;5.05;;;1.25;;
69779;SDS011;57052;55.602;38.096;2023-07-20T06:27:33;3.35;;;1.02;;
69779;SDS011;57052;55.602;38.096;2023-07-20T06:29:59;2.67;;;0.80;;
69779;SDS011;57052;55.602;38.096;2023-07-20T06:32:25;2.97;;;1.00;;
69779;SDS011;57052;55.602;38.096;2023-07-20T06:34:50;2.38;;;1.00;;
69779;SDS011;57052;55.602;38.096;2023-07-20T06:37:16;6.60;;;0.90;;
69779;SDS011;57052;55.602;38.096;2023-07-20T06:39:42;3.15;;;1.30;;
69779;SDS011;57052;55.602;38.096;2023-07-20T06:42:07;4.30;;;0.93;;
69779;SDS011;57052;55.602;38.096;2023-07-20T06:44:33;4.25;;;1.08;;
69779;SDS011;57052;55.602;38.096;2023-07-20T06:46:58;2.72;;;0.80;;
69779;SDS011;57052;55.602;38.096;2023-07-20T06:49:25;2.53;;;0.90;;
69779;SDS011;57052;55.602;38.096;2023-07-20T06:51:52;2.05;;;1.40;;
69779;SDS011;57052;55.602;38.096;2023-07-20T06:54:18;3.67;;;1.20;;
69779;SDS011;57052;55.602;38.096;2023-07-20T06:56:44;2.88;;;1.00;;
69779;SDS011;57052;55.602;38.096;2023-07-20T06:59:10;1.83;;;0.90;;
69779;SDS011;57052;55.602;38.096;2023-07-20T07:01:35;0.82;;;0.77;;
69779;SDS011;57052;55.602;38.096;2023-07-20T07:04:01;4.38;;;0.98;;
69779;SDS011;57052;55.602;38.096;2023-07-20T07:06:27;4.57;;;0.95;;
69779;SDS011;57052;55.602;38.096;2023-07-20T07:08:53;5.13;;;1.00;;
69779;SDS011;57052;55.602;38.096;2023-07-20T07:11:20;1.42;;;0.75;;
69779;SDS011;57052;55.602;38.096;2023-07-20T07:13:46;1.75;;;0.80;;
69779;SDS011;57052;55.602;38.096;2023-07-20T07:16:15;0.73;;;0.70;;
69779;SDS011;57052;55.602;38.096;2023-07-20T07:18:44;1.20;;;0.80;;
69779;SDS011;57052;55.602;38.096;2023-07-20T07:21:10;1.60;;;0.70;;
69779;SDS011;57052;55.602;38.096;2023-07-20T07:23:37;4.25;;;1.00;;
69779;SDS011;57052;55.602;38.096;2023-07-20T07:26:03;2.70;;;0.70;;
69779;SDS011;57052;55.602;38.096;2023-07-20T07:28:29;2.25;;;0.93;;
69779;SDS011;57052;55.602;38.096;2023-07-20T07:30:55;1.40;;;0.73;;
69779;SDS011;57052;55.602;38.096;2023-07-20T07:33:22;3.13;;;0.82;;
69779;SDS011;57052;55.602;38.096;2023-07-20T07:35:49;1.27;;;0.60;;
69779;SDS011;57052;55.602;38.096;2023-07-20T07:38:15;1.58;;;1.00;;
69779;SDS011;57052;55.602;38.096;2023-07-20T07:40:43;2.45;;;0.90;;
69779;SDS011;57052;55.602;38.096;2023-07-20T07:43:08;5.15;;;1.30;;
69779;SDS011;57052;55.602;38.096;2023-07-20T07:45:35;4.55;;;1.15;;
69779;SDS011;57052;55.602;38.096;2023-07-20T07:48:07;4.30;;;1.00;;
69779;SDS011;57052;55.602;38.096;2023-07-20T07:50:33;2.15;;;0.98;;
69779;SDS011;57052;55.602;38.096;2023-07-20T07:53:00;1.17;;;0.80;;
69779;SDS011;57052;55.602;38.096;2023-07-20T07:55:25;3.80;;;1.00;;
69779;SDS011;57052;55.602;38.096;2023-07-20T07:57:54;3.13;;;0.90;;
69779;SDS011;57052;55.602;38.096;2023-07-20T08:00:20;1.90;;;0.70;;
69779;SDS011;57052;55.602;38.096;2023-07-20T08:02:46;2.58;;;0.90;;
69779;SDS011;57052;55.602;38.096;2023-07-20T08:05:13;3.00;;;1.00;;
69779;SDS011;57052;55.602;38.096;2023-07-20T08:07:39;3.42;;;0.95;;
69779;SDS011;57052;55.602;38.096;2023-07-20T08:10:05;2.30;;;1.00;;
69779;SDS011;57052;55.602;38.096;2023-07-20T08:12:31;1.80;;;0.73;;
69779;SDS011;57052;55.602;38.096;2023-07-20T08:14:57;7.60;;;1.08;;
69779;SDS011;57052;55.602;38.096;2023-07-20T08:17:26;5.50;;;1.33;;
69779;SDS011;57052;55.602;38.096;2023-07-20T08:19:51;5.38;;;0.90;;
69779;SDS011;57052;55.602;38.096;2023-07-20T08:22:17;2.45;;;0.90;;
69779;SDS011;57052;55.602;38.096;2023-07-20T08:24:43;3.05;;;0.90;;
69779;SDS011;57052;55.602;38.096;2023-07-20T08:27:09;3.35;;;0.75;;
69779;SDS011;57052;55.602;38.096;2023-07-20T08:29:36;4.10;;;1.10;;
69779;SDS011;57052;55.602;38.096;2023-07-20T08:32:02;3.33;;;1.02;;
69779;SDS011;57052;55.602;38.096;2023-07-20T08:34:29;3.13;;;1.00;;
69779;SDS011;57052;55.602;38.096;2023-07-20T08:36:56;1.98;;;0.90;;
69779;SDS011;57052;55.602;38.096;2023-07-20T08:39:22;4.28;;;0.98;;
69779;SDS011;57052;55.602;38.096;2023-07-20T08:41:49;1.92;;;0.90;;
69779;SDS011;57052;55.602;38.096;2023-07-20T08:44:15;1.88;;;1.00;;
69779;SDS011;57052;55.602;38.096;2023-07-20T08:46:41;4.72;;;1.05;;
69779;SDS011;57052;55.602;38.096;2023-07-20T08:49:07;2.78;;;1.10;;
69779;SDS011;57052;55.602;38.096;2023-07-20T08:51:34;2.55;;;0.73;;
69779;SDS011;57052;55.602;38.096;2023-07-20T08:54:01;2.38;;;1.00;;
69779;SDS011;57052;55.602;38.096;2023-07-20T08:56:27;1.90;;;1.13;;
69779;SDS011;57052;55.602;38.096;2023-07-20T08:58:56;1.70;;;0.93;;
69779;SDS011;57052;55.602;38.096;2023-07-20T09:01:22;3.65;;;1.00;;
69779;SDS011;57052;55.602;38.096;2023-07-20T09:03:48;5.88;;;1.10;;
69779;SDS011;57052;55.602;38.096;2023-07-20T09:06:14;2.70;;;1.20;;
69779;SDS011;57052;55.602;38.096;2023-07-20T09:08:41;2.85;;;0.90;;
69779;SDS011;57052;55.602;38.096;2023-07-20T09:11:10;2.58;;;0.85;;
69779;SDS011;57052;55.602;38.096;2023-07-20T09:13:37;2.30;;;1.00;;
69779;SDS011;57052;55.602;38.096;2023-07-20T09:16:03;2.15;;;0.90;;
69779;SDS011;57052;55.602;38.096;2023-07-20T09:18:30;2.22;;;0.90;;
69779;SDS011;57052;55.602;38.096;2023-07-20T09:21:04;3.22;;;0.90;;
69779;SDS011;57052;55.602;38.096;2023-07-20T09:23:34;4.03;;;1.20;;
69779;SDS011;57052;55.602;38.096;2023-07-20T09:26:11;4.68;;;1.17;;
69779;SDS011;57052;55.602;38.096;2023-07-20T09:28:42;2.25;;;1.10;;
69779;SDS011;57052;55.602;38.096;2023-07-20T09:31:18;1.77;;;0.95;;
69779;SDS011;57052;55.602;38.096;2023-07-20T09:33:45;1.90;;;0.90;;
69779;SDS011;57052;55.602;38.096;2023-07-20T09:36:12;2.17;;;1.08;;
69779;SDS011;57052;55.602;38.096;2023-07-20T09:38:38;1.65;;;1.00;;
69779;SDS011;57052;55.602;38.096;2023-07-20T09:41:06;3.20;;;0.95;;
69779;SDS011;57052;55.602;38.096;2023-07-20T09:43:33;2.47;;;0.90;;
69779;SDS011;57052;55.602;38.096;2023-07-20T09:45:59;4.40;;;1.40;;
69779;SDS011;57052;55.602;38.096;2023-07-20T09:48:25;3.80;;;1.25;;
69779;SDS011;57052;55.602;38.096;2023-07-20T09:50:52;3.90;;;1.30;;
69779;SDS011;57052;55.602;38.096;2023-07-20T09:53:18;3.45;;;1.10;;
69779;SDS011;57052;55.602;38.096;2023-07-20T09:55:45;2.95;;;1.10;;
69779;SDS011;57052;55.602;38.096;2023-07-20T09:58:12;2.30;;;0.85;;
69779;SDS011;57052;55.602;38.096;2023-07-20T10:00:39;2.95;;;1.30;;
69779;SDS011;57052;55.602;38.096;2023-07-20T10:03:08;6.43;;;1.35;;
69779;SDS011;57052;55.602;38.096;2023-07-20T10:05:38;4.25;;;1.88;;
69779;SDS011;57052;55.602;38.096;2023-07-20T10:08:05;3.35;;;1.60;;
69779;SDS011;57052;55.602;38.096;2023-07-20T10:10:37;6.60;;;1.80;;
69779;SDS011;57052;55.602;38.096;2023-07-20T10:13:05;7.97;;;1.75;;
69779;SDS011;57052;55.602;38.096;2023-07-20T10:15:36;6.95;;;1.50;;
69779;SDS011;57052;55.602;38.096;2023-07-20T10:18:17;4.18;;;1.20;;
69779;SDS011;57052;55.602;38.096;2023-07-20T10:20:48;2.85;;;1.30;;
69779;SDS011;57052;55.602;38.096;2023-07-20T10:23:17;5.50;;;1.70;;
69779;SDS011;57052;55.602;38.096;2023-07-20T10:25:43;4.85;;;1.40;;
69779;SDS011;57052;55.602;38.096;2023-07-20T10:28:10;3.38;;;1.60;;
69779;SDS011;57052;55.602;38.096;2023-07-20T10:30:36;4.28;;;1.50;;
69779;SDS011;57052;55.602;38.096;2023-07-20T10:33:04;2.55;;;1.40;;
69779;SDS011;57052;55.602;38.096;2023-07-20T10:35:31;4.18;;;1.35;;
69779;SDS011;57052;55.602;38.096;2023-07-20T10:38:16;3.78;;;1.42;;
69779;SDS011;57052;55.602;38.096;2023-07-20T10:40:42;5.72;;;1.58;;
69779;SDS011;57052;55.602;38.096;2023-07-20T10:43:08;4.55;;;1.27;;
69779;SDS011;57052;55.602;38.096;2023-07-20T10:45:53;2.80;;;1.40;;
69779;SDS011;57052;55.602;38.096;2023-07-20T10:48:20;3.45;;;1.40;;
69779;SDS011;57052;55.602;38.096;2023-07-20T10:51:38;4.07;;;1.50;;
69779;SDS011;57052;55.602;38.096;2023-07-20T10:53:35;2.83;;;1.25;;
69779;SDS011;57052;55.602;38.096;2023-07-20T10:56:14;4.35;;;1.60;;
69779;SDS011;57052;55.602;38.096;2023-07-20T10:58:44;3.03;;;1.25;;
69779;SDS011;57052;55.602;38.096;2023-07-20T11:01:13;2.83;;;1.20;;
69779;SDS011;57052;55.602;38.096;2023-07-20T11:03:40;3.17;;;1.15;;
69779;SDS011;57052;55.602;38.096;2023-07-20T11:08:56;3.10;;;1.20;;
69779;SDS011;57052;55.602;38.096;2023-07-20T11:11:47;2.88;;;1.45;;
69779;SDS011;57052;55.602;38.096;2023-07-20T11:14:24;4.55;;;1.40;;
69779;SDS011;57052;55.602;38.096;2023-07-20T11:16:51;3.13;;;1.40;;
69779;SDS011;57052;55.602;38.096;2023-07-20T11:19:19;4.35;;;1.60;;
69779;SDS011;57052;55.602;38.096;2023-07-20T11:21:51;3.30;;;1.67;;
69779;SDS011;57052;55.602;38.096;2023-07-20T11:24:18;4.03;;;1.50;;
69779;SDS011;57052;55.602;38.096;2023-07-20T11:26:48;4.05;;;1.35;;
69779;SDS011;57052;55.602;38.096;2023-07-20T11:29:15;3.45;;;1.33;;
69779;SDS011;57052;55.602;38.096;2023-07-20T11:31:42;4.00;;;1.38;;
69779;SDS011;57052;55.602;38.096;2023-07-20T11:34:10;3.92;;;1.38;;
69779;SDS011;57052;55.602;38.096;2023-07-20T11:36:50;2.92;;;1.40;;
69779;SDS011;57052;55.602;38.096;2023-07-20T11:39:17;3.05;;;1.30;;
69779;SDS011;57052;55.602;38.096;2023-07-20T11:41:47;3.75;;;1.40;;
69779;SDS011;57052;55.602;38.096;2023-07-20T11:44:15;4.30;;;1.40;;
69779;SDS011;57052;55.602;38.096;2023-07-20T11:46:42;4.13;;;1.45;;
69779;SDS011;57052;55.602;38.096;2023-07-20T11:49:09;3.13;;;1.75;;
69779;SDS011;57052;55.602;38.096;2023-07-20T11:51:39;5.80;;;1.63;;
69779;SDS011;57052;55.602;38.096;2023-07-20T11:54:07;4.13;;;1.60;;
69779;SDS011;57052;55.602;38.096;2023-07-20T11:56:33;4.55;;;1.45;;
69779;SDS011;57052;55.602;38.096;2023-07-20T11:58:59;4.53;;;1.50;;
69779;SDS011;57052;55.602;38.096;2023-07-20T12:01:27;3.55;;;1.50;;
69779;SDS011;57052;55.602;38.096;2023-07-20T12:04:03;5.75;;;1.90;;
69779;SDS011;57052;55.602;38.096;2023-07-20T12:06:29;4.32;;;1.70;;
69779;SDS011;57052;55.602;38.096;2023-07-20T12:08:57;4.63;;;1.77;;
69779;SDS011;57052;55.602;38.096;2023-07-20T12:11:34;5.85;;;1.63;;
69779;SDS011;57052;55.602;38.096;2023-07-20T12:14:00;3.88;;;1.65;;
69779;SDS011;57052;55.602;38.096;2023-07-20T12:16:28;3.33;;;1.65;;
69779;SDS011;57052;55.602;38.096;2023-07-20T12:19:01;3.58;;;1.45;;
69779;SDS011;57052;55.602;38.096;2023-07-20T12:21:27;3.60;;;1.30;;
69779;SDS011;57052;55.602;38.096;2023-07-20T12:23:55;3.85;;;1.50;;
69779;SDS011;57052;55.602;38.096;2023-07-20T12:26:22;4.47;;;1.45;;
69779;SDS011;57052;55.602;38.096;2023-07-20T12:28:49;3.47;;;1.52;;
69779;SDS011;57052;55.602;38.096;2023-07-20T12:31:15;1.95;;;1.27;;
69779;SDS011;57052;55.602;38.096;2023-07-20T12:33:41;2.67;;;1.60;;
69779;SDS011;57052;55.602;38.096;2023-07-20T12:36:07;3.63;;;1.40;;
69779;SDS011;57052;55.602;38.096;2023-07-20T12:38:34;5.28;;;1.42;;
69779;SDS011;57052;55.602;38.096;2023-07-20T12:41:02;3.00;;;1.50;;
69779;SDS011;57052;55.602;38.096;2023-07-20T12:43:28;4.28;;;1.63;;
69779;SDS011;57052;55.602;38.096;2023-07-20T12:45:55;5.28;;;1.60;;
69779;SDS011;57052;55.602;38.096;2023-07-20T12:48:22;2.22;;;1.25;;
69779;SDS011;57052;55.602;38.096;2023-07-20T12:50:48;2.70;;;1.23;;
69779;SDS011;57052;55.602;38.096;2023-07-20T12:53:14;5.03;;;1.52;;
69779;SDS011;57052;55.602;38.096;2023-07-20T12:55:40;2.17;;;1.45;;
69779;SDS011;57052;55.602;38.096;2023-07-20T12:58:06;3.72;;;1.42;;
69779;SDS011;57052;55.602;38.096;2023-07-20T13:00:32;3.17;;;1.38;;
69779;SDS011;57052;55.602;38.096;2023-07-20T13:02:58;3.22;;;1.25;;
69779;SDS011;57052;55.602;38.096;2023-07-20T13:05:24;1.98;;;1.25;;
69779;SDS011;57052;55.602;38.096;2023-07-20T13:07:50;1.40;;;1.08;;
69779;SDS011;57052;55.602;38.096;2023-07-20T13:10:15;9.38;;;1.58;;
69779;SDS011;57052;55.602;38.096;2023-07-20T13:12:41;3.17;;;1.40;;
69779;SDS011;57052;55.602;38.096;2023-07-20T13:15:08;4.05;;;1.30;;
69779;SDS011;57052;55.602;38.096;2023-07-20T13:17:35;4.65;;;1.55;;
69779;SDS011;57052;55.602;38.096;2023-07-20T13:20:01;3.42;;;1.52;;
69779;SDS011;57052;55.602;38.096;2023-07-20T13:22:30;4.20;;;1.50;;
69779;SDS011;57052;55.602;38.096;2023-07-20T13:24:56;3.13;;;1.50;;
69779;SDS011;57052;55.602;38.096;2023-07-20T13:27:22;4.60;;;1.48;;
69779;SDS011;57052;55.602;38.096;2023-07-20T13:29:48;4.30;;;1.52;;
69779;SDS011;57052;55.602;38.096;2023-07-20T13:32:14;3.70;;;1.70;;
69779;SDS011;57052;55.602;38.096;2023-07-20T13:34:40;5.35;;;1.80;;
69779;SDS011;57052;55.602;38.096;2023-07-20T13:37:08;3.83;;;1.90;;
69779;SDS011;57052;55.602;38.096;2023-07-20T13:39:34;3.03;;;1.60;;
69779;SDS011;57052;55.602;38.096;2023-07-20T13:42:00;3.42;;;1.60;;
69779;SDS011;57052;55.602;38.096;2023-07-20T13:44:30;5.63;;;1.50;;
69779;SDS011;57052;55.602;38.096;2023-07-20T13:46:59;4.35;;;1.60;;
69779;SDS011;57052;55.602;38.096;2023-07-20T13:49:28;4.35;;;1.40;;
69779;SDS011;57052;55.602;38.096;2023-07-20T13:51:54;4.28;;;1.60;;
69779;SDS011;57052;55.602;38.096;2023-07-20T13:54:21;5.47;;;1.55;;
69779;SDS011;57052;55.602;38.096;2023-07-20T13:56:46;6.10;;;1.27;;
69779;SDS011;57052;55.602;38.096;2023-07-20T13:59:12;4.95;;;1.60;;
69779;SDS011;57052;55.602;38.096;2023-07-20T14:01:38;3.83;;;1.40;;
69779;SDS011;57052;55.602;38.096;2023-07-20T14:04:04;4.57;;;1.58;;
69779;SDS011;57052;55.602;38.096;2023-07-20T14:06:30;4.05;;;1.55;;
69779;SDS011;57052;55.602;38.096;2023-07-20T14:08:57;5.05;;;1.50;;
69779;SDS011;57052;55.602;38.096;2023-07-20T14:11:23;3.28;;;1.20;;
69779;SDS011;57052;55.602;38.096;2023-07-20T14:13:52;3.33;;;1.45;;
69779;SDS011;57052;55.602;38.096;2023-07-20T14:16:22;4.00;;;1.30;;
69779;SDS011;57052;55.602;38.096;2023-07-20T14:18:48;2.80;;;1.40;;
69779;SDS011;57052;55.602;38.096;2023-07-20T14:21:15;3.00;;;1.35;;
69779;SDS011;57052;55.602;38.096;2023-07-20T14:23:42;3.00;;;1.40;;
69779;SDS011;57052;55.602;38.096;2023-07-20T14:26:10;3.42;;;1.30;;
69779;SDS011;57052;55.602;38.096;2023-07-20T14:28:35;4.53;;;1.33;;
69779;SDS011;57052;55.602;38.096;2023-07-20T14:31:01;2.15;;;1.25;;
69779;SDS011;57052;55.602;38.096;2023-07-20T14:33:27;3.90;;;1.65;;
69779;SDS011;57052;55.602;38.096;2023-07-20T14:35:52;3.72;;;1.27;;
69779;SDS011;57052;55.602;38.096;2023-07-20T14:38:18;4.70;;;1.48;;
69779;SDS011;57052;55.602;38.096;2023-07-20T14:40:44;5.85;;;1.45;;
69779;SDS011;57052;55.602;38.096;2023-07-20T14:43:11;5.03;;;1.65;;
69779;SDS011;57052;55.602;38.096;2023-07-20T14:45:37;6.00;;;1.60;;
69779;SDS011;57052;55.602;38.096;2023-07-20T14:48:05;3.33;;;1.50;;